sensor_id;sensor_type;location;lat;lon;timestamp;temperature;humidity
4910;DHT22;2470;49.868;8.660;2022-09-16T00:01:49;16.90;99.90
4910;DHT22;2470;49.868;8.660;2022-09-16T00:04:16;16.90;99.90
4910;DHT22;2470;49.868;8.660;2022-09-16T00:06:42;17.00;99.90
4910;DHT22;2470;49.868;8.660;2022-09-16T00:09:09;17.00;99.90
4910;DHT22;2470;49.868;8.660;2022-09-16T00:11:34;17.00;99.90
4910;DHT22;2470;49.868;8.660;2022-09-16T00:14:00;16.90;99.90
4910;DHT22;2470;49.868;8.660;2022-09-16T00:16:27;16.90;99.90
4910;DHT22;2470;49.868;8.660;2022-09-16T00:18:54;16.80;99.90
4910;DHT22;2470;49.868;8.660;2022-09-16T00:21:21;16.80;99.90
4910;DHT22;2470;49.868;8.660;2022-09-16T00:23:46;16.80;99.90
4910;DHT22;2470;49.868;8.660;2022-09-16T00:26:12;16.80;99.90
4910;DHT22;2470;49.868;8.660;2022-09-16T00:28:39;16.80;99.90
4910;DHT22;2470;49.868;8.660;2022-09-16T00:31:04;16.80;99.90
4910;DHT22;2470;49.868;8.660;2022-09-16T00:33:30;16.90;99.90
4910;DHT22;2470;49.868;8.660;2022-09-16T00:36:09;16.90;99.90
4910;DHT22;2470;49.868;8.660;2022-09-16T00:38:36;16.80;99.90
4910;DHT22;2470;49.868;8.660;2022-09-16T00:41:02;16.80;99.90
4910;DHT22;2470;49.868;8.660;2022-09-16T00:43:28;16.90;99.90
4910;DHT22;2470;49.868;8.660;2022-09-16T00:45:58;16.70;99.90
4910;DHT22;2470;49.868;8.660;2022-09-16T00:48:26;16.90;99.90
4910;DHT22;2470;49.868;8.660;2022-09-16T00:50:57;16.90;99.90
4910;DHT22;2470;49.868;8.660;2022-09-16T00:53:33;16.80;99.90
4910;DHT22;2470;49.868;8.660;2022-09-16T00:56:05;16.70;99.90
4910;DHT22;2470;49.868;8.660;2022-09-16T00:58:42;16.70;99.90
4910;DHT22;2470;49.868;8.660;2022-09-16T01:01:08;16.70;99.90
4910;DHT22;2470;49.868;8.660;2022-09-16T01:03:39;16.70;99.90
4910;DHT22;2470;49.868;8.660;2022-09-16T01:06:08;16.70;99.90
4910;DHT22;2470;49.868;8.660;2022-09-16T01:08:36;16.70;99.90
4910;DHT22;2470;49.868;8.660;2022-09-16T01:11:01;16.70;99.90
4910;DHT22;2470;49.868;8.660;2022-09-16T01:13:27;16.80;99.90
4910;DHT22;2470;49.868;8.660;2022-09-16T01:16:41;16.70;99.90
4910;DHT22;2470;49.868;8.660;2022-09-16T01:24:29;16.70;99.90
4910;DHT22;2470;49.868;8.660;2022-09-16T01:27:20;16.70;99.90
4910;DHT22;2470;49.868;8.660;2022-09-16T01:30:17;16.60;99.90
4910;DHT22;2470;49.868;8.660;2022-09-16T01:33:03;16.60;99.90
4910;DHT22;2470;49.868;8.660;2022-09-16T01:38:40;16.70;99.90
4910;DHT22;2470;49.868;8.660;2022-09-16T01:44:01;16.70;99.90
4910;DHT22;2470;49.868;8.660;2022-09-16T01:46:35;16.60;99.90
4910;DHT22;2470;49.868;8.660;2022-09-16T01:49:20;16.60;99.90
4910;DHT22;2470;49.868;8.660;2022-09-16T01:52:05;16.60;99.90
4910;DHT22;2470;49.868;8.660;2022-09-16T01:57:19;16.60;99.90
4910;DHT22;2470;49.868;8.660;2022-09-16T02:00:07;16.60;99.90
4910;DHT22;2470;49.868;8.660;2022-09-16T02:02:40;16.70;99.90
4910;DHT22;2470;49.868;8.660;2022-09-16T02:05:30;16.50;99.90
4910;DHT22;2470;49.868;8.660;2022-09-16T02:08:05;16.50;99.90
4910;DHT22;2470;49.868;8.660;2022-09-16T02:10:40;16.40;99.90
4910;DHT22;2470;49.868;8.660;2022-09-16T02:13:16;16.50;99.90
4910;DHT22;2470;49.868;8.660;2022-09-16T02:15:47;16.50;99.90
4910;DHT22;2470;49.868;8.660;2022-09-16T02:18:18;16.50;99.90
4910;DHT22;2470;49.868;8.660;2022-09-16T02:20:47;16.50;99.90
4910;DHT22;2470;49.868;8.660;2022-09-16T02:23:17;16.40;99.90
4910;DHT22;2470;49.868;8.660;2022-09-16T02:25:46;16.40;99.90
4910;DHT22;2470;49.868;8.660;2022-09-16T02:28:15;16.40;99.90
4910;DHT22;2470;49.868;8.660;2022-09-16T02:30:44;16.40;99.90
4910;DHT22;2470;49.868;8.660;2022-09-16T02:33:12;16.50;99.90
4910;DHT22;2470;49.868;8.660;2022-09-16T02:35:40;16.50;99.90
4910;DHT22;2470;49.868;8.660;2022-09-16T02:38:10;16.60;99.90
4910;DHT22;2470;49.868;8.660;2022-09-16T02:40:45;16.50;99.90
4910;DHT22;2470;49.868;8.660;2022-09-16T02:43:12;16.50;99.90
4910;DHT22;2470;49.868;8.660;2022-09-16T02:50:52;16.50;99.90
4910;DHT22;2470;49.868;8.660;2022-09-16T02:56:30;16.40;99.90
4910;DHT22;2470;49.868;8.660;2022-09-16T02:58:56;16.30;99.90
4910;DHT22;2470;49.868;8.660;2022-09-16T03:01:23;16.30;99.90
4910;DHT22;2470;49.868;8.660;2022-09-16T03:03:50;16.30;99.90
4910;DHT22;2470;49.868;8.660;2022-09-16T03:06:18;16.30;99.90
4910;DHT22;2470;49.868;8.660;2022-09-16T03:08:45;16.30;99.90
4910;DHT22;2470;49.868;8.660;2022-09-16T03:20:28;16.20;99.90
4910;DHT22;2470;49.868;8.660;2022-09-16T03:32:03;16.10;99.90
4910;DHT22;2470;49.868;8.660;2022-09-16T03:37:06;16.10;99.90
4910;DHT22;2470;49.868;8.660;2022-09-16T03:39:33;16.20;99.90
4910;DHT22;2470;49.868;8.660;2022-09-16T03:42:04;16.20;99.90
4910;DHT22;2470;49.868;8.660;2022-09-16T03:44:35;16.20;99.90
4910;DHT22;2470;49.868;8.660;2022-09-16T03:47:08;16.10;99.90
4910;DHT22;2470;49.868;8.660;2022-09-16T03:49:35;16.10;99.90
4910;DHT22;2470;49.868;8.660;2022-09-16T03:52:01;16.00;99.90
4910;DHT22;2470;49.868;8.660;2022-09-16T03:54:29;15.90;99.90
4910;DHT22;2470;49.868;8.660;2022-09-16T03:56:54;15.80;99.90
4910;DHT22;2470;49.868;8.660;2022-09-16T03:59:20;15.80;99.90
4910;DHT22;2470;49.868;8.660;2022-09-16T04:01:46;15.80;99.90
4910;DHT22;2470;49.868;8.660;2022-09-16T04:04:12;15.70;99.90
4910;DHT22;2470;49.868;8.660;2022-09-16T04:06:38;15.60;99.90
4910;DHT22;2470;49.868;8.660;2022-09-16T04:09:06;15.60;99.90
4910;DHT22;2470;49.868;8.660;2022-09-16T04:11:34;15.60;99.90
4910;DHT22;2470;49.868;8.660;2022-09-16T04:14:00;15.60;99.90
4910;DHT22;2470;49.868;8.660;2022-09-16T04:16:25;15.70;99.90
4910;DHT22;2470;49.868;8.660;2022-09-16T04:18:52;15.60;99.90
4910;DHT22;2470;49.868;8.660;2022-09-16T04:21:17;15.50;99.90
4910;DHT22;2470;49.868;8.660;2022-09-16T04:23:43;15.60;99.90
4910;DHT22;2470;49.868;8.660;2022-09-16T04:26:09;15.60;99.90
4910;DHT22;2470;49.868;8.660;2022-09-16T04:28:35;15.60;99.90
4910;DHT22;2470;49.868;8.660;2022-09-16T04:31:03;15.70;99.90
4910;DHT22;2470;49.868;8.660;2022-09-16T04:33:30;15.70;99.90
4910;DHT22;2470;49.868;8.660;2022-09-16T04:36:11;15.80;99.90
4910;DHT22;2470;49.868;8.660;2022-09-16T04:38:38;15.70;99.90
4910;DHT22;2470;49.868;8.660;2022-09-16T04:41:07;15.70;99.90
4910;DHT22;2470;49.868;8.660;2022-09-16T04:43:33;15.70;99.90
4910;DHT22;2470;49.868;8.660;2022-09-16T04:45:59;15.70;99.90
4910;DHT22;2470;49.868;8.660;2022-09-16T04:48:25;15.70;99.90
4910;DHT22;2470;49.868;8.660;2022-09-16T04:50:51;15.70;99.90
4910;DHT22;2470;49.868;8.660;2022-09-16T04:53:21;15.70;99.90
4910;DHT22;2470;49.868;8.660;2022-09-16T04:55:46;15.70;99.90
4910;DHT22;2470;49.868;8.660;2022-09-16T04:58:12;15.70;99.90
4910;DHT22;2470;49.868;8.660;2022-09-16T05:00:38;15.70;99.90
4910;DHT22;2470;49.868;8.660;2022-09-16T05:03:04;15.70;99.90
4910;DHT22;2470;49.868;8.660;2022-09-16T05:05:29;15.70;99.90
4910;DHT22;2470;49.868;8.660;2022-09-16T05:07:55;15.70;99.90
4910;DHT22;2470;49.868;8.660;2022-09-16T05:10:20;15.60;99.90
4910;DHT22;2470;49.868;8.660;2022-09-16T05:12:50;15.60;99.90
4910;DHT22;2470;49.868;8.660;2022-09-16T05:15:16;15.60;99.90
4910;DHT22;2470;49.868;8.660;2022-09-16T05:17:42;15.60;99.90
4910;DHT22;2470;49.868;8.660;2022-09-16T05:20:07;15.60;99.90
4910;DHT22;2470;49.868;8.660;2022-09-16T05:22:33;15.60;99.90
4910;DHT22;2470;49.868;8.660;2022-09-16T05:24:58;15.60;99.90
4910;DHT22;2470;49.868;8.660;2022-09-16T05:27:24;15.70;99.90
4910;DHT22;2470;49.868;8.660;2022-09-16T05:29:52;15.70;99.90
4910;DHT22;2470;49.868;8.660;2022-09-16T05:32:17;15.70;99.90
4910;DHT22;2470;49.868;8.660;2022-09-16T05:34:43;15.80;99.90
4910;DHT22;2470;49.868;8.660;2022-09-16T05:37:08;15.80;99.90
4910;DHT22;2470;49.868;8.660;2022-09-16T05:39:34;15.80;99.90
4910;DHT22;2470;49.868;8.660;2022-09-16T05:41:59;15.80;99.90
4910;DHT22;2470;49.868;8.660;2022-09-16T05:44:26;15.90;99.90
4910;DHT22;2470;49.868;8.660;2022-09-16T05:46:52;15.90;99.90
4910;DHT22;2470;49.868;8.660;2022-09-16T05:49:18;15.90;99.90
4910;DHT22;2470;49.868;8.660;2022-09-16T05:51:45;15.90;99.90
4910;DHT22;2470;49.868;8.660;2022-09-16T05:54:11;15.90;99.90
4910;DHT22;2470;49.868;8.660;2022-09-16T05:56:37;15.90;99.90
4910;DHT22;2470;49.868;8.660;2022-09-16T05:59:03;15.90;99.90
4910;DHT22;2470;49.868;8.660;2022-09-16T06:01:31;15.90;99.90
4910;DHT22;2470;49.868;8.660;2022-09-16T06:03:58;15.90;99.90
4910;DHT22;2470;49.868;8.660;2022-09-16T06:06:26;15.90;99.90
4910;DHT22;2470;49.868;8.660;2022-09-16T06:08:55;15.90;99.90
4910;DHT22;2470;49.868;8.660;2022-09-16T06:11:21;15.90;99.90
4910;DHT22;2470;49.868;8.660;2022-09-16T06:13:52;15.80;99.90
4910;DHT22;2470;49.868;8.660;2022-09-16T06:16:20;15.90;99.90
4910;DHT22;2470;49.868;8.660;2022-09-16T06:18:45;15.90;99.90
4910;DHT22;2470;49.868;8.660;2022-09-16T06:21:11;15.80;99.90
4910;DHT22;2470;49.868;8.660;2022-09-16T06:23:37;15.90;99.90
4910;DHT22;2470;49.868;8.660;2022-09-16T06:28:30;15.90;99.90
4910;DHT22;2470;49.868;8.660;2022-09-16T06:33:31;16.00;99.90
4910;DHT22;2470;49.868;8.660;2022-09-16T06:35:56;16.00;99.90
4910;DHT22;2470;49.868;8.660;2022-09-16T06:38:23;16.10;99.90
4910;DHT22;2470;49.868;8.660;2022-09-16T06:40:48;16.10;99.90
4910;DHT22;2470;49.868;8.660;2022-09-16T06:43:14;16.10;99.90
4910;DHT22;2470;49.868;8.660;2022-09-16T06:45:40;16.10;99.90
4910;DHT22;2470;49.868;8.660;2022-09-16T06:48:05;16.20;99.90
4910;DHT22;2470;49.868;8.660;2022-09-16T06:50:31;16.40;99.90
4910;DHT22;2470;49.868;8.660;2022-09-16T06:52:57;16.50;99.90
4910;DHT22;2470;49.868;8.660;2022-09-16T06:55:22;16.60;99.90
4910;DHT22;2470;49.868;8.660;2022-09-16T06:57:48;16.70;99.90
4910;DHT22;2470;49.868;8.660;2022-09-16T07:00:13;16.70;99.90
4910;DHT22;2470;49.868;8.660;2022-09-16T07:02:39;16.70;99.90
4910;DHT22;2470;49.868;8.660;2022-09-16T07:05:05;16.60;99.90
4910;DHT22;2470;49.868;8.660;2022-09-16T07:07:30;16.60;99.90
4910;DHT22;2470;49.868;8.660;2022-09-16T07:09:56;16.60;99.90
4910;DHT22;2470;49.868;8.660;2022-09-16T07:12:23;16.60;99.90
4910;DHT22;2470;49.868;8.660;2022-09-16T07:14:48;16.60;99.90
4910;DHT22;2470;49.868;8.660;2022-09-16T07:17:13;16.50;99.90
4910;DHT22;2470;49.868;8.660;2022-09-16T07:19:39;16.50;99.90
4910;DHT22;2470;49.868;8.660;2022-09-16T07:22:06;16.60;99.90
4910;DHT22;2470;49.868;8.660;2022-09-16T07:24:32;16.60;99.90
4910;DHT22;2470;49.868;8.660;2022-09-16T07:26:57;16.60;99.90
4910;DHT22;2470;49.868;8.660;2022-09-16T07:29:23;16.60;99.90
4910;DHT22;2470;49.868;8.660;2022-09-16T07:31:48;16.60;99.90
4910;DHT22;2470;49.868;8.660;2022-09-16T07:34:14;16.60;99.90
4910;DHT22;2470;49.868;8.660;2022-09-16T07:36:42;16.60;99.90
4910;DHT22;2470;49.868;8.660;2022-09-16T07:39:10;16.70;99.90
4910;DHT22;2470;49.868;8.660;2022-09-16T07:41:39;16.70;99.90
4910;DHT22;2470;49.868;8.660;2022-09-16T07:44:06;16.70;99.90
4910;DHT22;2470;49.868;8.660;2022-09-16T07:46:34;16.80;99.90
4910;DHT22;2470;49.868;8.660;2022-09-16T07:49:01;16.80;99.90
4910;DHT22;2470;49.868;8.660;2022-09-16T07:51:28;16.80;99.90
4910;DHT22;2470;49.868;8.660;2022-09-16T07:54:16;16.80;99.90
4910;DHT22;2470;49.868;8.660;2022-09-16T07:56:42;16.80;99.90
4910;DHT22;2470;49.868;8.660;2022-09-16T07:59:11;16.70;99.90
4910;DHT22;2470;49.868;8.660;2022-09-16T08:01:37;16.60;99.90
4910;DHT22;2470;49.868;8.660;2022-09-16T08:04:03;16.70;99.90
4910;DHT22;2470;49.868;8.660;2022-09-16T08:06:30;16.80;99.90
4910;DHT22;2470;49.868;8.660;2022-09-16T08:08:58;16.80;99.90
4910;DHT22;2470;49.868;8.660;2022-09-16T08:11:25;16.70;99.90
4910;DHT22;2470;49.868;8.660;2022-09-16T08:13:51;16.70;99.90
4910;DHT22;2470;49.868;8.660;2022-09-16T08:16:18;16.90;99.90
4910;DHT22;2470;49.868;8.660;2022-09-16T08:18:46;16.90;99.90
4910;DHT22;2470;49.868;8.660;2022-09-16T08:21:20;17.00;99.90
4910;DHT22;2470;49.868;8.660;2022-09-16T08:23:46;17.10;99.90
4910;DHT22;2470;49.868;8.660;2022-09-16T08:26:13;17.10;99.90
4910;DHT22;2470;49.868;8.660;2022-09-16T08:28:41;17.10;99.90
4910;DHT22;2470;49.868;8.660;2022-09-16T08:31:07;17.10;99.90
4910;DHT22;2470;49.868;8.660;2022-09-16T08:33:33;17.10;99.90
4910;DHT22;2470;49.868;8.660;2022-09-16T08:36:09;17.00;99.90
4910;DHT22;2470;49.868;8.660;2022-09-16T08:38:35;17.10;99.90
4910;DHT22;2470;49.868;8.660;2022-09-16T08:46:55;17.30;99.90
4910;DHT22;2470;49.868;8.660;2022-09-16T08:49:39;17.40;99.90
4910;DHT22;2470;49.868;8.660;2022-09-16T08:52:13;17.40;99.60
4910;DHT22;2470;49.868;8.660;2022-09-16T08:54:44;17.50;99.40
4910;DHT22;2470;49.868;8.660;2022-09-16T08:57:14;17.60;99.80
4910;DHT22;2470;49.868;8.660;2022-09-16T08:59:45;17.90;99.70
4910;DHT22;2470;49.868;8.660;2022-09-16T09:02:40;18.10;98.60
4910;DHT22;2470;49.868;8.660;2022-09-16T09:17:06;17.70;97.50
4910;DHT22;2470;49.868;8.660;2022-09-16T09:20:11;17.70;97.90
4910;DHT22;2470;49.868;8.660;2022-09-16T09:22:59;17.70;97.50
4910;DHT22;2470;49.868;8.660;2022-09-16T09:29:03;17.70;97.80
4910;DHT22;2470;49.868;8.660;2022-09-16T09:34:57;18.10;93.50
4910;DHT22;2470;49.868;8.660;2022-09-16T09:37:43;18.40;91.80
4910;DHT22;2470;49.868;8.660;2022-09-16T09:45:28;18.30;91.50
4910;DHT22;2470;49.868;8.660;2022-09-16T09:50:46;18.00;90.60
4910;DHT22;2470;49.868;8.660;2022-09-16T09:53:32;18.00;90.80
4910;DHT22;2470;49.868;8.660;2022-09-16T09:56:21;18.00;90.60
4910;DHT22;2470;49.868;8.660;2022-09-16T10:01:17;18.40;90.30
4910;DHT22;2470;49.868;8.660;2022-09-16T10:03:43;18.70;89.20
4910;DHT22;2470;49.868;8.660;2022-09-16T10:06:09;18.80;88.50
4910;DHT22;2470;49.868;8.660;2022-09-16T10:11:24;19.20;86.20
4910;DHT22;2470;49.868;8.660;2022-09-16T10:13:55;19.10;84.50
4910;DHT22;2470;49.868;8.660;2022-09-16T10:16:28;18.90;81.80
4910;DHT22;2470;49.868;8.660;2022-09-16T10:19:02;18.80;82.20
4910;DHT22;2470;49.868;8.660;2022-09-16T10:24:57;18.60;85.10
4910;DHT22;2470;49.868;8.660;2022-09-16T10:27:27;18.50;84.90
4910;DHT22;2470;49.868;8.660;2022-09-16T10:33:05;18.40;88.40
4910;DHT22;2470;49.868;8.660;2022-09-16T10:35:34;18.50;89.40
4910;DHT22;2470;49.868;8.660;2022-09-16T10:40:37;18.60;90.10
4910;DHT22;2470;49.868;8.660;2022-09-16T10:43:06;19.00;89.00
4910;DHT22;2470;49.868;8.660;2022-09-16T10:45:44;19.30;87.30
4910;DHT22;2470;49.868;8.660;2022-09-16T10:48:13;19.50;80.30
4910;DHT22;2470;49.868;8.660;2022-09-16T10:51:01;19.50;77.00
4910;DHT22;2470;49.868;8.660;2022-09-16T10:53:33;19.30;78.50
4910;DHT22;2470;49.868;8.660;2022-09-16T10:56:05;19.00;80.00
4910;DHT22;2470;49.868;8.660;2022-09-16T10:58:31;18.90;82.70
4910;DHT22;2470;49.868;8.660;2022-09-16T11:07:18;18.60;84.10
4910;DHT22;2470;49.868;8.660;2022-09-16T11:09:57;18.60;84.80
4910;DHT22;2470;49.868;8.660;2022-09-16T11:18:05;18.80;84.30
4910;DHT22;2470;49.868;8.660;2022-09-16T11:45:45;20.30;80.30
4910;DHT22;2470;49.868;8.660;2022-09-16T11:48:20;20.50;79.00
4910;DHT22;2470;49.868;8.660;2022-09-16T11:56:07;20.30;79.00
4910;DHT22;2470;49.868;8.660;2022-09-16T11:58:40;20.20;79.00
4910;DHT22;2470;49.868;8.660;2022-09-16T12:01:36;20.20;78.50
4910;DHT22;2470;49.868;8.660;2022-09-16T12:07:00;20.30;78.50
4910;DHT22;2470;49.868;8.660;2022-09-16T12:09:39;20.60;76.20
4910;DHT22;2470;49.868;8.660;2022-09-16T12:12:12;20.60;76.00
4910;DHT22;2470;49.868;8.660;2022-09-16T12:14:49;20.40;75.20
4910;DHT22;2470;49.868;8.660;2022-09-16T12:17:22;20.40;76.10
4910;DHT22;2470;49.868;8.660;2022-09-16T12:19:57;20.30;75.80
4910;DHT22;2470;49.868;8.660;2022-09-16T12:22:40;20.30;75.90
4910;DHT22;2470;49.868;8.660;2022-09-16T12:25:18;20.20;75.30
4910;DHT22;2470;49.868;8.660;2022-09-16T12:27:53;20.10;76.60
4910;DHT22;2470;49.868;8.660;2022-09-16T12:30:26;20.00;75.30
4910;DHT22;2470;49.868;8.660;2022-09-16T12:38:20;19.30;79.00
4910;DHT22;2470;49.868;8.660;2022-09-16T12:49:44;18.80;90.60
4910;DHT22;2470;49.868;8.660;2022-09-16T12:55:30;18.70;94.20
4910;DHT22;2470;49.868;8.660;2022-09-16T13:00:54;19.00;92.70
4910;DHT22;2470;49.868;8.660;2022-09-16T13:03:22;21.00;92.80
4910;DHT22;2470;49.868;8.660;2022-09-16T13:05:52;24.30;83.30
4910;DHT22;2470;49.868;8.660;2022-09-16T13:08:32;26.90;72.70
4910;DHT22;2470;49.868;8.660;2022-09-16T13:11:05;28.90;61.40
4910;DHT22;2470;49.868;8.660;2022-09-16T13:13:46;27.50;59.40
4910;DHT22;2470;49.868;8.660;2022-09-16T13:16:12;25.40;61.50
4910;DHT22;2470;49.868;8.660;2022-09-16T13:18:44;24.10;64.90
4910;DHT22;2470;49.868;8.660;2022-09-16T13:21:24;22.80;65.10
4910;DHT22;2470;49.868;8.660;2022-09-16T13:24:02;22.00;66.60
4910;DHT22;2470;49.868;8.660;2022-09-16T13:26:41;21.90;66.70
4910;DHT22;2470;49.868;8.660;2022-09-16T13:29:41;22.60;68.30
4910;DHT22;2470;49.868;8.660;2022-09-16T13:32:25;26.70;61.90
4910;DHT22;2470;49.868;8.660;2022-09-16T13:35:05;29.80;54.90
4910;DHT22;2470;49.868;8.660;2022-09-16T13:37:46;30.70;51.20
4910;DHT22;2470;49.868;8.660;2022-09-16T13:42:47;29.70;49.00
4910;DHT22;2470;49.868;8.660;2022-09-16T13:45:37;27.40;51.70
4910;DHT22;2470;49.868;8.660;2022-09-16T13:48:22;25.50;55.00
4910;DHT22;2470;49.868;8.660;2022-09-16T13:50:53;25.60;57.20
4910;DHT22;2470;49.868;8.660;2022-09-16T13:53:27;25.50;56.70
4910;DHT22;2470;49.868;8.660;2022-09-16T13:56:00;24.90;56.70
4910;DHT22;2470;49.868;8.660;2022-09-16T13:58:32;24.00;57.40
4910;DHT22;2470;49.868;8.660;2022-09-16T14:01:10;22.80;59.80
4910;DHT22;2470;49.868;8.660;2022-09-16T14:12:19;20.30;71.80
4910;DHT22;2470;49.868;8.660;2022-09-16T14:14:48;20.30;72.30
4910;DHT22;2470;49.868;8.660;2022-09-16T14:17:25;20.20;73.50
4910;DHT22;2470;49.868;8.660;2022-09-16T14:19:56;20.30;75.30
4910;DHT22;2470;49.868;8.660;2022-09-16T14:22:22;20.40;76.70
4910;DHT22;2470;49.868;8.660;2022-09-16T14:24:52;20.50;78.00
4910;DHT22;2470;49.868;8.660;2022-09-16T14:27:29;20.50;75.70
4910;DHT22;2470;49.868;8.660;2022-09-16T14:29:57;20.40;75.00
4910;DHT22;2470;49.868;8.660;2022-09-16T14:32:24;20.40;73.60
4910;DHT22;2470;49.868;8.660;2022-09-16T14:34:52;20.40;74.20
4910;DHT22;2470;49.868;8.660;2022-09-16T14:37:19;20.30;73.20
4910;DHT22;2470;49.868;8.660;2022-09-16T14:39:46;20.10;71.20
4910;DHT22;2470;49.868;8.660;2022-09-16T14:42:18;19.90;73.30
4910;DHT22;2470;49.868;8.660;2022-09-16T14:44:54;19.80;72.20
4910;DHT22;2470;49.868;8.660;2022-09-16T14:49:55;19.70;74.30
4910;DHT22;2470;49.868;8.660;2022-09-16T14:52:24;19.70;75.00
4910;DHT22;2470;49.868;8.660;2022-09-16T14:54:50;19.50;74.70
4910;DHT22;2470;49.868;8.660;2022-09-16T14:57:20;19.50;76.50
4910;DHT22;2470;49.868;8.660;2022-09-16T14:59:48;19.50;76.60
4910;DHT22;2470;49.868;8.660;2022-09-16T15:05:00;19.50;77.60
4910;DHT22;2470;49.868;8.660;2022-09-16T15:07:35;19.40;78.50
4910;DHT22;2470;49.868;8.660;2022-09-16T15:10:34;19.50;80.30
4910;DHT22;2470;49.868;8.660;2022-09-16T15:13:02;19.50;80.70
4910;DHT22;2470;49.868;8.660;2022-09-16T15:15:32;19.50;82.40
4910;DHT22;2470;49.868;8.660;2022-09-16T15:18:08;19.30;84.80
4910;DHT22;2470;49.868;8.660;2022-09-16T15:20:38;19.20;88.30
4910;DHT22;2470;49.868;8.660;2022-09-16T15:23:06;18.90;89.80
4910;DHT22;2470;49.868;8.660;2022-09-16T15:25:33;18.70;91.10
4910;DHT22;2470;49.868;8.660;2022-09-16T15:28:14;18.50;91.90
4910;DHT22;2470;49.868;8.660;2022-09-16T15:30:49;18.20;93.00
4910;DHT22;2470;49.868;8.660;2022-09-16T15:33:33;18.00;94.50
4910;DHT22;2470;49.868;8.660;2022-09-16T15:35:59;17.80;96.00
4910;DHT22;2470;49.868;8.660;2022-09-16T15:38:26;17.70;96.80
4910;DHT22;2470;49.868;8.660;2022-09-16T15:41:05;17.60;97.10
4910;DHT22;2470;49.868;8.660;2022-09-16T15:43:37;17.50;96.80
4910;DHT22;2470;49.868;8.660;2022-09-16T15:46:11;17.30;97.20
4910;DHT22;2470;49.868;8.660;2022-09-16T15:48:43;17.30;97.80
4910;DHT22;2470;49.868;8.660;2022-09-16T15:54:01;17.20;97.70
4910;DHT22;2470;49.868;8.660;2022-09-16T15:56:35;17.30;97.80
4910;DHT22;2470;49.868;8.660;2022-09-16T15:59:06;17.20;96.80
4910;DHT22;2470;49.868;8.660;2022-09-16T16:01:45;17.20;95.60
4910;DHT22;2470;49.868;8.660;2022-09-16T16:04:23;17.30;94.50
4910;DHT22;2470;49.868;8.660;2022-09-16T16:06:53;17.20;94.00
4910;DHT22;2470;49.868;8.660;2022-09-16T16:11:54;17.20;92.20
4910;DHT22;2470;49.868;8.660;2022-09-16T16:14:20;17.20;92.50
4910;DHT22;2470;49.868;8.660;2022-09-16T16:16:46;17.10;91.60
4910;DHT22;2470;49.868;8.660;2022-09-16T16:19:12;17.00;92.00
4910;DHT22;2470;49.868;8.660;2022-09-16T16:21:39;16.90;92.70
4910;DHT22;2470;49.868;8.660;2022-09-16T16:24:10;16.80;93.00
4910;DHT22;2470;49.868;8.660;2022-09-16T16:26:36;16.70;93.60
4910;DHT22;2470;49.868;8.660;2022-09-16T16:29:01;16.70;93.80
4910;DHT22;2470;49.868;8.660;2022-09-16T16:31:26;16.70;94.20
4910;DHT22;2470;49.868;8.660;2022-09-16T16:33:52;16.70;94.40
4910;DHT22;2470;49.868;8.660;2022-09-16T16:36:18;16.70;94.60
4910;DHT22;2470;49.868;8.660;2022-09-16T16:38:44;16.60;95.20
4910;DHT22;2470;49.868;8.660;2022-09-16T16:41:12;16.50;95.50
4910;DHT22;2470;49.868;8.660;2022-09-16T16:43:43;16.40;95.30
4910;DHT22;2470;49.868;8.660;2022-09-16T16:46:08;16.40;95.10
4910;DHT22;2470;49.868;8.660;2022-09-16T16:48:34;16.50;95.50
4910;DHT22;2470;49.868;8.660;2022-09-16T16:51:02;16.50;95.60
4910;DHT22;2470;49.868;8.660;2022-09-16T16:53:29;16.40;95.50
4910;DHT22;2470;49.868;8.660;2022-09-16T16:56:09;16.30;95.10
4910;DHT22;2470;49.868;8.660;2022-09-16T16:58:35;16.20;95.30
4910;DHT22;2470;49.868;8.660;2022-09-16T17:01:18;16.00;95.80
4910;DHT22;2470;49.868;8.660;2022-09-16T17:03:46;16.00;96.20
4910;DHT22;2470;49.868;8.660;2022-09-16T17:06:14;16.00;96.30
4910;DHT22;2470;49.868;8.660;2022-09-16T17:08:39;16.00;96.60
4910;DHT22;2470;49.868;8.660;2022-09-16T17:11:13;15.90;97.10
4910;DHT22;2470;49.868;8.660;2022-09-16T17:13:40;15.90;97.50
4910;DHT22;2470;49.868;8.660;2022-09-16T17:16:07;15.80;97.80
4910;DHT22;2470;49.868;8.660;2022-09-16T17:18:34;15.70;97.90
4910;DHT22;2470;49.868;8.660;2022-09-16T17:21:05;15.60;98.40
4910;DHT22;2470;49.868;8.660;2022-09-16T17:23:32;15.70;98.80
4910;DHT22;2470;49.868;8.660;2022-09-16T17:25:58;15.60;98.90
4910;DHT22;2470;49.868;8.660;2022-09-16T17:28:24;15.60;99.30
4910;DHT22;2470;49.868;8.660;2022-09-16T17:30:52;15.50;99.70
4910;DHT22;2470;49.868;8.660;2022-09-16T17:33:21;15.60;99.90
4910;DHT22;2470;49.868;8.660;2022-09-16T17:36:04;15.50;99.90
4910;DHT22;2470;49.868;8.660;2022-09-16T17:38:30;15.40;99.90
4910;DHT22;2470;49.868;8.660;2022-09-16T17:41:04;15.40;99.90
4910;DHT22;2470;49.868;8.660;2022-09-16T17:43:31;15.40;99.90
4910;DHT22;2470;49.868;8.660;2022-09-16T17:46:01;15.30;99.90
4910;DHT22;2470;49.868;8.660;2022-09-16T17:48:27;15.20;99.90
4910;DHT22;2470;49.868;8.660;2022-09-16T17:50:54;15.20;99.90
4910;DHT22;2470;49.868;8.660;2022-09-16T17:53:19;15.10;99.90
4910;DHT22;2470;49.868;8.660;2022-09-16T17:55:45;15.00;99.90
4910;DHT22;2470;49.868;8.660;2022-09-16T17:58:12;15.00;99.90
4910;DHT22;2470;49.868;8.660;2022-09-16T18:00:39;14.90;99.90
4910;DHT22;2470;49.868;8.660;2022-09-16T18:03:04;14.80;99.90
4910;DHT22;2470;49.868;8.660;2022-09-16T18:05:35;14.90;99.90
4910;DHT22;2470;49.868;8.660;2022-09-16T18:08:02;14.80;99.90
4910;DHT22;2470;49.868;8.660;2022-09-16T18:10:28;14.80;99.90
4910;DHT22;2470;49.868;8.660;2022-09-16T18:12:54;14.80;99.90
4910;DHT22;2470;49.868;8.660;2022-09-16T18:15:22;14.90;99.90
4910;DHT22;2470;49.868;8.660;2022-09-16T18:17:48;14.80;99.90
4910;DHT22;2470;49.868;8.660;2022-09-16T18:20:13;14.80;99.90
4910;DHT22;2470;49.868;8.660;2022-09-16T18:22:39;14.70;99.90
4910;DHT22;2470;49.868;8.660;2022-09-16T18:25:05;14.70;99.90
4910;DHT22;2470;49.868;8.660;2022-09-16T18:27:30;14.60;99.90
4910;DHT22;2470;49.868;8.660;2022-09-16T18:29:56;14.60;99.90
4910;DHT22;2470;49.868;8.660;2022-09-16T18:32:22;14.60;99.90
4910;DHT22;2470;49.868;8.660;2022-09-16T18:34:47;14.70;99.90
4910;DHT22;2470;49.868;8.660;2022-09-16T18:37:13;14.60;99.90
4910;DHT22;2470;49.868;8.660;2022-09-16T18:39:39;14.60;99.90
4910;DHT22;2470;49.868;8.660;2022-09-16T18:42:04;14.60;99.90
4910;DHT22;2470;49.868;8.660;2022-09-16T18:44:30;14.60;99.90
4910;DHT22;2470;49.868;8.660;2022-09-16T18:46:55;14.60;99.90
4910;DHT22;2470;49.868;8.660;2022-09-16T18:49:21;14.40;99.90
4910;DHT22;2470;49.868;8.660;2022-09-16T18:51:50;14.40;99.90
4910;DHT22;2470;49.868;8.660;2022-09-16T18:54:18;14.30;99.90
4910;DHT22;2470;49.868;8.660;2022-09-16T18:56:44;14.30;99.90
4910;DHT22;2470;49.868;8.660;2022-09-16T18:59:17;14.40;99.90
4910;DHT22;2470;49.868;8.660;2022-09-16T19:01:43;14.40;99.90
4910;DHT22;2470;49.868;8.660;2022-09-16T19:04:13;14.40;99.90
4910;DHT22;2470;49.868;8.660;2022-09-16T19:06:41;14.50;99.90
4910;DHT22;2470;49.868;8.660;2022-09-16T19:09:10;14.50;99.90
4910;DHT22;2470;49.868;8.660;2022-09-16T19:11:36;14.50;99.90
4910;DHT22;2470;49.868;8.660;2022-09-16T19:14:03;14.50;99.90
4910;DHT22;2470;49.868;8.660;2022-09-16T19:16:31;14.40;99.90
4910;DHT22;2470;49.868;8.660;2022-09-16T19:18:57;14.50;99.90
4910;DHT22;2470;49.868;8.660;2022-09-16T19:21:23;14.40;99.90
4910;DHT22;2470;49.868;8.660;2022-09-16T19:23:54;14.40;99.90